sensor_id;sensor_type;location;lat;lon;timestamp;P1;durP1;ratioP1;P2;durP2;ratioP2
5539;SDS011;2792;52.452;9.752;2023-03-01T00:00:04;9.05;;;6.07;;
5539;SDS011;2792;52.452;9.752;2023-03-01T00:02:32;11.80;;;6.88;;
5539;SDS011;2792;52.452;9.752;2023-03-01T00:04:58;9.93;;;6.88;;
5539;SDS011;2792;52.452;9.752;2023-03-01T00:07:25;8.88;;;6.78;;
5539;SDS011;2792;52.452;9.752;2023-03-01T00:09:51;8.43;;;6.57;;
5539;SDS011;2792;52.452;9.752;2023-03-01T00:12:20;8.60;;;6.47;;
5539;SDS011;2792;52.452;9.752;2023-03-01T00:14:47;8.65;;;6.55;;
5539;SDS011;2792;52.452;9.752;2023-03-01T00:17:13;11.65;;;6.70;;
5539;SDS011;2792;52.452;9.752;2023-03-01T00:19:40;8.40;;;6.50;;
5539;SDS011;2792;52.452;9.752;2023-03-01T00:22:06;10.15;;;7.05;;
5539;SDS011;2792;52.452;9.752;2023-03-01T00:24:33;10.82;;;7.00;;
5539;SDS011;2792;52.452;9.752;2023-03-01T00:26:59;7.63;;;5.63;;
5539;SDS011;2792;52.452;9.752;2023-03-01T00:29:28;9.27;;;6.38;;
5539;SDS011;2792;52.452;9.752;2023-03-01T00:31:54;8.88;;;6.63;;
5539;SDS011;2792;52.452;9.752;2023-03-01T00:34:21;10.85;;;7.30;;
5539;SDS011;2792;52.452;9.752;2023-03-01T00:36:47;8.85;;;6.40;;
5539;SDS011;2792;52.452;9.752;2023-03-01T00:39:14;14.52;;;7.00;;
5539;SDS011;2792;52.452;9.752;2023-03-01T00:41:41;10.10;;;6.57;;
5539;SDS011;2792;52.452;9.752;2023-03-01T00:44:08;10.02;;;7.22;;
5539;SDS011;2792;52.452;9.752;2023-03-01T00:46:36;10.65;;;6.78;;
5539;SDS011;2792;52.452;9.752;2023-03-01T00:49:02;10.55;;;6.30;;
5539;SDS011;2792;52.452;9.752;2023-03-01T00:51:29;10.27;;;6.97;;
5539;SDS011;2792;52.452;9.752;2023-03-01T00:53:58;11.15;;;7.15;;
5539;SDS011;2792;52.452;9.752;2023-03-01T00:56:25;8.40;;;6.78;;
5539;SDS011;2792;52.452;9.752;2023-03-01T00:58:53;8.15;;;6.00;;
5539;SDS011;2792;52.452;9.752;2023-03-01T01:01:20;10.45;;;7.28;;
5539;SDS011;2792;52.452;9.752;2023-03-01T01:03:51;14.02;;;7.35;;
5539;SDS011;2792;52.452;9.752;2023-03-01T01:06:19;9.40;;;6.75;;
5539;SDS011;2792;52.452;9.752;2023-03-01T01:08:47;10.90;;;7.13;;
5539;SDS011;2792;52.452;9.752;2023-03-01T01:11:14;10.20;;;7.40;;
5539;SDS011;2792;52.452;9.752;2023-03-01T01:13:41;15.63;;;7.55;;
5539;SDS011;2792;52.452;9.752;2023-03-01T01:16:08;9.65;;;7.22;;
5539;SDS011;2792;52.452;9.752;2023-03-01T01:18:35;10.00;;;6.80;;
5539;SDS011;2792;52.452;9.752;2023-03-01T01:21:07;11.35;;;6.88;;
5539;SDS011;2792;52.452;9.752;2023-03-01T01:23:35;12.27;;;7.05;;
5539;SDS011;2792;52.452;9.752;2023-03-01T01:26:03;10.27;;;7.40;;
5539;SDS011;2792;52.452;9.752;2023-03-01T01:28:31;9.48;;;6.82;;
5539;SDS011;2792;52.452;9.752;2023-03-01T01:30:57;8.43;;;6.82;;
5539;SDS011;2792;52.452;9.752;2023-03-01T01:33:24;11.68;;;7.55;;
5539;SDS011;2792;52.452;9.752;2023-03-01T01:35:50;8.98;;;6.38;;
5539;SDS011;2792;52.452;9.752;2023-03-01T01:38:18;10.68;;;6.72;;
5539;SDS011;2792;52.452;9.752;2023-03-01T01:40:46;8.88;;;7.13;;
5539;SDS011;2792;52.452;9.752;2023-03-01T01:43:16;10.88;;;7.72;;
5539;SDS011;2792;52.452;9.752;2023-03-01T01:45:45;11.05;;;6.95;;
5539;SDS011;2792;52.452;9.752;2023-03-01T01:48:13;12.50;;;7.85;;
5539;SDS011;2792;52.452;9.752;2023-03-01T01:50:40;12.18;;;6.97;;
5539;SDS011;2792;52.452;9.752;2023-03-01T01:53:10;10.32;;;7.50;;
5539;SDS011;2792;52.452;9.752;2023-03-01T01:55:41;11.60;;;6.90;;
5539;SDS011;2792;52.452;9.752;2023-03-01T01:58:09;10.63;;;7.43;;
5539;SDS011;2792;52.452;9.752;2023-03-01T02:00:38;11.68;;;7.35;;
5539;SDS011;2792;52.452;9.752;2023-03-01T02:03:06;11.23;;;6.72;;
5539;SDS011;2792;52.452;9.752;2023-03-01T02:05:36;11.85;;;6.93;;
5539;SDS011;2792;52.452;9.752;2023-03-01T02:08:05;10.40;;;7.43;;
5539;SDS011;2792;52.452;9.752;2023-03-01T02:10:32;12.23;;;7.07;;
5539;SDS011;2792;52.452;9.752;2023-03-01T02:13:01;9.98;;;7.43;;
5539;SDS011;2792;52.452;9.752;2023-03-01T02:15:29;10.40;;;6.88;;
5539;SDS011;2792;52.452;9.752;2023-03-01T02:17:57;11.02;;;7.20;;
5539;SDS011;2792;52.452;9.752;2023-03-01T02:20:26;10.50;;;6.03;;
5539;SDS011;2792;52.452;9.752;2023-03-01T02:22:57;10.45;;;7.25;;
5539;SDS011;2792;52.452;9.752;2023-03-01T02:25:27;9.55;;;6.63;;
5539;SDS011;2792;52.452;9.752;2023-03-01T02:27:58;8.38;;;6.28;;
5539;SDS011;2792;52.452;9.752;2023-03-01T02:30:30;8.50;;;6.80;;
5539;SDS011;2792;52.452;9.752;2023-03-01T02:32:57;10.20;;;7.57;;
5539;SDS011;2792;52.452;9.752;2023-03-01T02:35:27;9.55;;;6.80;;
5539;SDS011;2792;52.452;9.752;2023-03-01T02:37:55;9.63;;;7.00;;
5539;SDS011;2792;52.452;9.752;2023-03-01T02:40:22;9.65;;;6.22;;
5539;SDS011;2792;52.452;9.752;2023-03-01T02:42:50;8.38;;;6.55;;
5539;SDS011;2792;52.452;9.752;2023-03-01T02:45:18;9.82;;;6.75;;
5539;SDS011;2792;52.452;9.752;2023-03-01T02:47:46;7.65;;;6.05;;
5539;SDS011;2792;52.452;9.752;2023-03-01T02:50:15;9.02;;;6.13;;
5539;SDS011;2792;52.452;9.752;2023-03-01T02:52:52;10.65;;;7.43;;
5539;SDS011;2792;52.452;9.752;2023-03-01T02:55:21;10.45;;;7.20;;
5539;SDS011;2792;52.452;9.752;2023-03-01T02:57:48;7.53;;;5.85;;
5539;SDS011;2792;52.452;9.752;2023-03-01T03:00:17;8.75;;;6.30;;
5539;SDS011;2792;52.452;9.752;2023-03-01T03:02:47;9.07;;;6.30;;
5539;SDS011;2792;52.452;9.752;2023-03-01T03:05:16;9.30;;;6.55;;
5539;SDS011;2792;52.452;9.752;2023-03-01T03:07:44;9.10;;;6.45;;
5539;SDS011;2792;52.452;9.752;2023-03-01T03:10:12;9.10;;;5.63;;
5539;SDS011;2792;52.452;9.752;2023-03-01T03:12:40;8.13;;;6.57;;
5539;SDS011;2792;52.452;9.752;2023-03-01T03:15:08;10.15;;;6.30;;
5539;SDS011;2792;52.452;9.752;2023-03-01T03:17:38;8.80;;;6.38;;
5539;SDS011;2792;52.452;9.752;2023-03-01T03:20:07;8.05;;;5.68;;
5539;SDS011;2792;52.452;9.752;2023-03-01T03:22:36;8.10;;;6.18;;
5539;SDS011;2792;52.452;9.752;2023-03-01T03:25:04;8.88;;;6.25;;
5539;SDS011;2792;52.452;9.752;2023-03-01T03:27:34;8.63;;;5.95;;
5539;SDS011;2792;52.452;9.752;2023-03-01T03:30:00;10.23;;;6.13;;
5539;SDS011;2792;52.452;9.752;2023-03-01T03:32:27;8.73;;;6.43;;
5539;SDS011;2792;52.452;9.752;2023-03-01T03:34:53;7.80;;;5.72;;
5539;SDS011;2792;52.452;9.752;2023-03-01T03:37:21;8.65;;;6.00;;
5539;SDS011;2792;52.452;9.752;2023-03-01T03:40:05;11.93;;;5.85;;
5539;SDS011;2792;52.452;9.752;2023-03-01T03:42:40;9.80;;;6.28;;
5539;SDS011;2792;52.452;9.752;2023-03-01T03:45:07;9.55;;;5.90;;
5539;SDS011;2792;52.452;9.752;2023-03-01T03:47:34;8.82;;;6.13;;
5539;SDS011;2792;52.452;9.752;2023-03-01T03:50:00;10.25;;;6.82;;
5539;SDS011;2792;52.452;9.752;2023-03-01T03:52:28;8.85;;;6.32;;
5539;SDS011;2792;52.452;9.752;2023-03-01T03:54:55;7.93;;;6.20;;
5539;SDS011;2792;52.452;9.752;2023-03-01T03:57:21;9.32;;;6.45;;
5539;SDS011;2792;52.452;9.752;2023-03-01T03:59:48;10.07;;;6.80;;
5539;SDS011;2792;52.452;9.752;2023-03-01T04:02:14;10.18;;;6.90;;
5539;SDS011;2792;52.452;9.752;2023-03-01T04:04:46;9.32;;;6.50;;
5539;SDS011;2792;52.452;9.752;2023-03-01T04:07:14;7.50;;;5.63;;
5539;SDS011;2792;52.452;9.752;2023-03-01T04:09:42;8.13;;;6.10;;
5539;SDS011;2792;52.452;9.752;2023-03-01T04:12:09;8.75;;;6.25;;
5539;SDS011;2792;52.452;9.752;2023-03-01T04:14:36;9.07;;;6.10;;
5539;SDS011;2792;52.452;9.752;2023-03-01T04:17:02;8.27;;;6.25;;
5539;SDS011;2792;52.452;9.752;2023-03-01T04:19:30;8.88;;;6.03;;
5539;SDS011;2792;52.452;9.752;2023-03-01T04:22:00;10.40;;;5.88;;
5539;SDS011;2792;52.452;9.752;2023-03-01T04:24:34;6.43;;;5.78;;
5539;SDS011;2792;52.452;9.752;2023-03-01T04:27:02;9.60;;;6.32;;
5539;SDS011;2792;52.452;9.752;2023-03-01T04:29:29;9.63;;;6.05;;
5539;SDS011;2792;52.452;9.752;2023-03-01T04:31:55;14.57;;;6.40;;
5539;SDS011;2792;52.452;9.752;2023-03-01T04:34:22;7.78;;;5.63;;
5539;SDS011;2792;52.452;9.752;2023-03-01T04:36:49;8.38;;;6.05;;
5539;SDS011;2792;52.452;9.752;2023-03-01T04:39:15;9.65;;;5.97;;
5539;SDS011;2792;52.452;9.752;2023-03-01T04:41:42;9.93;;;5.38;;
5539;SDS011;2792;52.452;9.752;2023-03-01T04:44:10;7.22;;;5.25;;
5539;SDS011;2792;52.452;9.752;2023-03-01T04:46:37;8.80;;;6.22;;
5539;SDS011;2792;52.452;9.752;2023-03-01T04:49:04;10.65;;;6.25;;
5539;SDS011;2792;52.452;9.752;2023-03-01T04:51:31;13.02;;;6.13;;
5539;SDS011;2792;52.452;9.752;2023-03-01T04:53:58;8.27;;;5.80;;
5539;SDS011;2792;52.452;9.752;2023-03-01T04:56:25;8.18;;;5.60;;
5539;SDS011;2792;52.452;9.752;2023-03-01T04:58:52;8.18;;;5.85;;
5539;SDS011;2792;52.452;9.752;2023-03-01T05:01:20;17.00;;;7.18;;
5539;SDS011;2792;52.452;9.752;2023-03-01T05:03:48;6.80;;;5.38;;
5539;SDS011;2792;52.452;9.752;2023-03-01T05:06:16;10.15;;;6.72;;
5539;SDS011;2792;52.452;9.752;2023-03-01T05:08:43;9.30;;;6.30;;
5539;SDS011;2792;52.452;9.752;2023-03-01T05:11:10;10.95;;;6.40;;
5539;SDS011;2792;52.452;9.752;2023-03-01T05:13:37;8.95;;;5.75;;
5539;SDS011;2792;52.452;9.752;2023-03-01T05:16:05;7.65;;;5.72;;
5539;SDS011;2792;52.452;9.752;2023-03-01T05:18:37;7.28;;;5.85;;
5539;SDS011;2792;52.452;9.752;2023-03-01T05:21:04;8.43;;;5.80;;
5539;SDS011;2792;52.452;9.752;2023-03-01T05:23:32;8.00;;;5.68;;
5539;SDS011;2792;52.452;9.752;2023-03-01T05:25:58;9.00;;;5.90;;
5539;SDS011;2792;52.452;9.752;2023-03-01T05:28:26;9.48;;;6.65;;
5539;SDS011;2792;52.452;9.752;2023-03-01T05:30:53;8.90;;;6.45;;
5539;SDS011;2792;52.452;9.752;2023-03-01T05:33:19;9.10;;;5.93;;
5539;SDS011;2792;52.452;9.752;2023-03-01T05:35:48;8.80;;;6.38;;
5539;SDS011;2792;52.452;9.752;2023-03-01T05:38:16;7.95;;;5.65;;
5539;SDS011;2792;52.452;9.752;2023-03-01T05:40:44;11.82;;;6.07;;
5539;SDS011;2792;52.452;9.752;2023-03-01T05:43:12;7.50;;;5.60;;
5539;SDS011;2792;52.452;9.752;2023-03-01T05:45:39;8.43;;;5.75;;
5539;SDS011;2792;52.452;9.752;2023-03-01T05:48:07;7.00;;;5.40;;
5539;SDS011;2792;52.452;9.752;2023-03-01T05:50:34;8.70;;;6.45;;
5539;SDS011;2792;52.452;9.752;2023-03-01T05:53:04;8.65;;;5.82;;
5539;SDS011;2792;52.452;9.752;2023-03-01T05:55:33;10.13;;;6.38;;
5539;SDS011;2792;52.452;9.752;2023-03-01T05:58:00;10.13;;;6.78;;
5539;SDS011;2792;52.452;9.752;2023-03-01T06:00:28;7.22;;;5.60;;
5539;SDS011;2792;52.452;9.752;2023-03-01T06:02:56;6.75;;;5.60;;
5539;SDS011;2792;52.452;9.752;2023-03-01T06:05:23;8.65;;;5.53;;
5539;SDS011;2792;52.452;9.752;2023-03-01T06:07:50;6.55;;;5.00;;
5539;SDS011;2792;52.452;9.752;2023-03-01T06:10:19;8.55;;;5.50;;
5539;SDS011;2792;52.452;9.752;2023-03-01T06:12:47;10.02;;;6.05;;
5539;SDS011;2792;52.452;9.752;2023-03-01T06:15:14;8.02;;;5.10;;
5539;SDS011;2792;52.452;9.752;2023-03-01T06:17:42;8.73;;;5.80;;
5539;SDS011;2792;52.452;9.752;2023-03-01T06:20:10;8.73;;;5.72;;
5539;SDS011;2792;52.452;9.752;2023-03-01T06:22:39;8.57;;;5.90;;
5539;SDS011;2792;52.452;9.752;2023-03-01T06:25:07;11.32;;;6.82;;
5539;SDS011;2792;52.452;9.752;2023-03-01T06:27:35;10.00;;;6.40;;
5539;SDS011;2792;52.452;9.752;2023-03-01T06:30:02;10.07;;;5.93;;
5539;SDS011;2792;52.452;9.752;2023-03-01T06:32:29;10.15;;;5.47;;
5539;SDS011;2792;52.452;9.752;2023-03-01T06:34:56;8.35;;;5.05;;
5539;SDS011;2792;52.452;9.752;2023-03-01T06:37:23;8.35;;;6.13;;
5539;SDS011;2792;52.452;9.752;2023-03-01T06:39:50;7.97;;;5.95;;
5539;SDS011;2792;52.452;9.752;2023-03-01T06:42:16;8.25;;;5.95;;
5539;SDS011;2792;52.452;9.752;2023-03-01T06:44:44;10.60;;;6.40;;
5539;SDS011;2792;52.452;9.752;2023-03-01T06:47:11;9.10;;;6.05;;
5539;SDS011;2792;52.452;9.752;2023-03-01T06:49:38;8.70;;;6.03;;
5539;SDS011;2792;52.452;9.752;2023-03-01T06:52:05;9.13;;;6.97;;
5539;SDS011;2792;52.452;9.752;2023-03-01T06:54:31;9.15;;;7.05;;
5539;SDS011;2792;52.452;9.752;2023-03-01T06:56:58;8.02;;;5.45;;
5539;SDS011;2792;52.452;9.752;2023-03-01T06:59:24;11.82;;;5.72;;
5539;SDS011;2792;52.452;9.752;2023-03-01T07:01:52;9.30;;;6.28;;
5539;SDS011;2792;52.452;9.752;2023-03-01T07:04:18;10.32;;;6.00;;
5539;SDS011;2792;52.452;9.752;2023-03-01T07:06:45;9.63;;;6.15;;
5539;SDS011;2792;52.452;9.752;2023-03-01T07:09:19;11.32;;;6.07;;
5539;SDS011;2792;52.452;9.752;2023-03-01T07:11:46;8.55;;;6.05;;
5539;SDS011;2792;52.452;9.752;2023-03-01T07:14:13;7.97;;;5.53;;
5539;SDS011;2792;52.452;9.752;2023-03-01T07:16:40;8.38;;;6.32;;
5539;SDS011;2792;52.452;9.752;2023-03-01T07:19:08;11.07;;;6.85;;
5539;SDS011;2792;52.452;9.752;2023-03-01T07:21:34;8.27;;;6.15;;
5539;SDS011;2792;52.452;9.752;2023-03-01T07:24:01;10.48;;;6.90;;
5539;SDS011;2792;52.452;9.752;2023-03-01T07:26:27;8.65;;;6.32;;
5539;SDS011;2792;52.452;9.752;2023-03-01T07:28:54;10.43;;;6.40;;
5539;SDS011;2792;52.452;9.752;2023-03-01T07:31:20;8.07;;;5.70;;
5539;SDS011;2792;52.452;9.752;2023-03-01T07:33:47;9.95;;;5.93;;
5539;SDS011;2792;52.452;9.752;2023-03-01T07:36:15;6.63;;;5.85;;
5539;SDS011;2792;52.452;9.752;2023-03-01T07:38:41;8.88;;;5.82;;
5539;SDS011;2792;52.452;9.752;2023-03-01T07:41:08;8.75;;;6.60;;
5539;SDS011;2792;52.452;9.752;2023-03-01T07:43:34;10.65;;;6.38;;
5539;SDS011;2792;52.452;9.752;2023-03-01T07:46:01;8.18;;;6.30;;
5539;SDS011;2792;52.452;9.752;2023-03-01T07:48:28;9.10;;;6.78;;
5539;SDS011;2792;52.452;9.752;2023-03-01T07:50:55;12.95;;;8.05;;
5539;SDS011;2792;52.452;9.752;2023-03-01T07:53:25;10.27;;;8.38;;
5539;SDS011;2792;52.452;9.752;2023-03-01T07:55:59;15.98;;;8.85;;
5539;SDS011;2792;52.452;9.752;2023-03-01T07:58:26;11.63;;;7.85;;
5539;SDS011;2792;52.452;9.752;2023-03-01T08:00:53;10.30;;;7.68;;
5539;SDS011;2792;52.452;9.752;2023-03-01T08:03:19;13.70;;;9.10;;
5539;SDS011;2792;52.452;9.752;2023-03-01T08:05:46;9.85;;;7.80;;
5539;SDS011;2792;52.452;9.752;2023-03-01T08:08:12;14.38;;;8.30;;
5539;SDS011;2792;52.452;9.752;2023-03-01T08:10:40;12.32;;;8.20;;
5539;SDS011;2792;52.452;9.752;2023-03-01T08:13:07;10.73;;;8.13;;
5539;SDS011;2792;52.452;9.752;2023-03-01T08:15:33;13.25;;;8.63;;
5539;SDS011;2792;52.452;9.752;2023-03-01T08:18:00;12.07;;;8.48;;
5539;SDS011;2792;52.452;9.752;2023-03-01T08:20:26;13.20;;;8.95;;
5539;SDS011;2792;52.452;9.752;2023-03-01T08:22:53;10.55;;;8.40;;
5539;SDS011;2792;52.452;9.752;2023-03-01T08:25:20;11.05;;;7.97;;
5539;SDS011;2792;52.452;9.752;2023-03-01T08:27:47;12.00;;;8.40;;
5539;SDS011;2792;52.452;9.752;2023-03-01T08:30:14;12.63;;;8.45;;
5539;SDS011;2792;52.452;9.752;2023-03-01T08:32:41;12.50;;;8.25;;
5539;SDS011;2792;52.452;9.752;2023-03-01T08:35:07;13.20;;;7.97;;
5539;SDS011;2792;52.452;9.752;2023-03-01T08:37:34;10.57;;;7.03;;
5539;SDS011;2792;52.452;9.752;2023-03-01T08:40:01;10.50;;;7.32;;
5539;SDS011;2792;52.452;9.752;2023-03-01T08:42:28;9.70;;;6.70;;
5539;SDS011;2792;52.452;9.752;2023-03-01T08:44:56;7.90;;;5.95;;
5539;SDS011;2792;52.452;9.752;2023-03-01T08:47:23;6.83;;;5.33;;
5539;SDS011;2792;52.452;9.752;2023-03-01T08:49:49;7.60;;;5.60;;
5539;SDS011;2792;52.452;9.752;2023-03-01T08:52:16;14.38;;;6.22;;
5539;SDS011;2792;52.452;9.752;2023-03-01T08:54:43;9.05;;;6.10;;
5539;SDS011;2792;52.452;9.752;2023-03-01T08:57:09;10.38;;;6.88;;
5539;SDS011;2792;52.452;9.752;2023-03-01T08:59:36;11.30;;;7.18;;
5539;SDS011;2792;52.452;9.752;2023-03-01T09:02:04;11.30;;;6.20;;
5539;SDS011;2792;52.452;9.752;2023-03-01T09:04:31;8.30;;;5.57;;
5539;SDS011;2792;52.452;9.752;2023-03-01T09:06:58;8.90;;;6.80;;
5539;SDS011;2792;52.452;9.752;2023-03-01T09:09:24;7.53;;;5.40;;
5539;SDS011;2792;52.452;9.752;2023-03-01T09:11:51;6.50;;;5.43;;
5539;SDS011;2792;52.452;9.752;2023-03-01T09:14:17;7.73;;;5.80;;
5539;SDS011;2792;52.452;9.752;2023-03-01T09:16:44;9.10;;;6.57;;
5539;SDS011;2792;52.452;9.752;2023-03-01T09:19:12;8.70;;;5.77;;
5539;SDS011;2792;52.452;9.752;2023-03-01T09:21:39;6.77;;;5.33;;
5539;SDS011;2792;52.452;9.752;2023-03-01T09:24:06;6.55;;;5.43;;
5539;SDS011;2792;52.452;9.752;2023-03-01T09:26:34;14.63;;;6.40;;
5539;SDS011;2792;52.452;9.752;2023-03-01T09:29:01;6.57;;;5.50;;
5539;SDS011;2792;52.452;9.752;2023-03-01T09:31:27;9.13;;;5.50;;
5539;SDS011;2792;52.452;9.752;2023-03-01T09:33:54;8.13;;;5.57;;
5539;SDS011;2792;52.452;9.752;2023-03-01T09:36:22;7.47;;;5.03;;
5539;SDS011;2792;52.452;9.752;2023-03-01T09:38:50;11.10;;;6.80;;
5539;SDS011;2792;52.452;9.752;2023-03-01T09:41:31;6.87;;;4.90;;
5539;SDS011;2792;52.452;9.752;2023-03-01T09:44:07;8.30;;;5.20;;
5539;SDS011;2792;52.452;9.752;2023-03-01T09:46:40;10.50;;;4.90;;
5539;SDS011;2792;52.452;9.752;2023-03-01T09:49:10;6.00;;;4.37;;
5539;SDS011;2792;52.452;9.752;2023-03-01T09:51:38;5.30;;;4.37;;
5539;SDS011;2792;52.452;9.752;2023-03-01T09:54:05;6.00;;;3.50;;
5539;SDS011;2792;52.452;9.752;2023-03-01T09:56:33;6.50;;;4.43;;
5539;SDS011;2792;52.452;9.752;2023-03-01T09:59:04;6.13;;;3.67;;
5539;SDS011;2792;52.452;9.752;2023-03-01T10:01:38;5.50;;;3.30;;
5539;SDS011;2792;52.452;9.752;2023-03-01T10:04:22;6.80;;;3.20;;
5539;SDS011;2792;52.452;9.752;2023-03-01T10:06:58;4.03;;;3.63;;
5539;SDS011;2792;52.452;9.752;2023-03-01T10:09:41;5.90;;;3.30;;
5539;SDS011;2792;52.452;9.752;2023-03-01T10:12:10;4.93;;;3.40;;
5539;SDS011;2792;52.452;9.752;2023-03-01T10:14:39;5.07;;;4.13;;
5539;SDS011;2792;52.452;9.752;2023-03-01T10:17:23;8.43;;;4.20;;
5539;SDS011;2792;52.452;9.752;2023-03-01T10:19:52;5.83;;;3.70;;
5539;SDS011;2792;52.452;9.752;2023-03-01T10:22:21;7.00;;;3.90;;
5539;SDS011;2792;52.452;9.752;2023-03-01T10:24:48;6.87;;;3.87;;
5539;SDS011;2792;52.452;9.752;2023-03-01T10:27:17;6.23;;;3.73;;
5539;SDS011;2792;52.452;9.752;2023-03-01T10:29:48;8.90;;;3.60;;
5539;SDS011;2792;52.452;9.752;2023-03-01T10:32:17;4.03;;;3.27;;
5539;SDS011;2792;52.452;9.752;2023-03-01T10:34:44;4.00;;;3.00;;
5539;SDS011;2792;52.452;9.752;2023-03-01T10:37:11;3.83;;;3.00;;
5539;SDS011;2792;52.452;9.752;2023-03-01T10:42:33;3.53;;;2.90;;
5539;SDS011;2792;52.452;9.752;2023-03-01T10:45:15;3.23;;;2.80;;
5539;SDS011;2792;52.452;9.752;2023-03-01T10:47:43;4.80;;;2.90;;
5539;SDS011;2792;52.452;9.752;2023-03-01T10:50:17;5.97;;;3.40;;
5539;SDS011;2792;52.452;9.752;2023-03-01T10:52:55;3.83;;;2.83;;
5539;SDS011;2792;52.452;9.752;2023-03-01T10:55:24;5.00;;;3.17;;
5539;SDS011;2792;52.452;9.752;2023-03-01T10:58:07;3.97;;;2.50;;
5539;SDS011;2792;52.452;9.752;2023-03-01T11:00:45;4.47;;;2.87;;
5539;SDS011;2792;52.452;9.752;2023-03-01T11:03:13;3.13;;;2.73;;
5539;SDS011;2792;52.452;9.752;2023-03-01T11:05:50;3.57;;;3.03;;
5539;SDS011;2792;52.452;9.752;2023-03-01T11:08:28;4.00;;;2.50;;
5539;SDS011;2792;52.452;9.752;2023-03-01T11:11:03;4.77;;;3.00;;
5539;SDS011;2792;52.452;9.752;2023-03-01T11:13:32;3.57;;;2.53;;
5539;SDS011;2792;52.452;9.752;2023-03-01T11:16:00;4.27;;;3.10;;
5539;SDS011;2792;52.452;9.752;2023-03-01T11:18:29;4.60;;;3.17;;
5539;SDS011;2792;52.452;9.752;2023-03-01T11:20:56;3.43;;;2.60;;
5539;SDS011;2792;52.452;9.752;2023-03-01T11:23:24;2.63;;;2.30;;
5539;SDS011;2792;52.452;9.752;2023-03-01T11:25:56;3.33;;;2.53;;
5539;SDS011;2792;52.452;9.752;2023-03-01T11:28:23;5.20;;;2.63;;
5539;SDS011;2792;52.452;9.752;2023-03-01T11:30:53;5.00;;;3.10;;
5539;SDS011;2792;52.452;9.752;2023-03-01T11:33:24;3.53;;;3.20;;
5539;SDS011;2792;52.452;9.752;2023-03-01T11:36:01;3.00;;;2.50;;
5539;SDS011;2792;52.452;9.752;2023-03-01T11:38:32;4.40;;;3.80;;
5539;SDS011;2792;52.452;9.752;2023-03-01T11:41:01;6.43;;;5.50;;
5539;SDS011;2792;52.452;9.752;2023-03-01T11:43:33;5.07;;;3.20;;
5539;SDS011;2792;52.452;9.752;2023-03-01T11:46:14;4.10;;;2.77;;
5539;SDS011;2792;52.452;9.752;2023-03-01T11:48:53;3.10;;;2.80;;
5539;SDS011;2792;52.452;9.752;2023-03-01T11:51:32;2.90;;;2.40;;
5539;SDS011;2792;52.452;9.752;2023-03-01T11:54:18;2.90;;;2.40;;
5539;SDS011;2792;52.452;9.752;2023-03-01T11:56:52;2.40;;;2.17;;
5539;SDS011;2792;52.452;9.752;2023-03-01T12:02:32;3.30;;;2.50;;
5539;SDS011;2792;52.452;9.752;2023-03-01T12:05:20;2.97;;;2.30;;
5539;SDS011;2792;52.452;9.752;2023-03-01T12:08:06;3.10;;;2.80;;
5539;SDS011;2792;52.452;9.752;2023-03-01T12:10:38;3.53;;;2.63;;
5539;SDS011;2792;52.452;9.752;2023-03-01T12:13:35;3.10;;;2.43;;
5539;SDS011;2792;52.452;9.752;2023-03-01T12:16:18;2.30;;;1.83;;
5539;SDS011;2792;52.452;9.752;2023-03-01T12:19:03;3.60;;;2.53;;
5539;SDS011;2792;52.452;9.752;2023-03-01T12:21:47;2.50;;;2.27;;
5539;SDS011;2792;52.452;9.752;2023-03-01T12:24:28;3.60;;;2.73;;
5539;SDS011;2792;52.452;9.752;2023-03-01T12:27:12;3.03;;;2.73;;
5539;SDS011;2792;52.452;9.752;2023-03-01T12:29:47;3.83;;;2.67;;
5539;SDS011;2792;52.452;9.752;2023-03-01T12:32:22;3.80;;;2.63;;
5539;SDS011;2792;52.452;9.752;2023-03-01T12:35:12;8.60;;;2.93;;
5539;SDS011;2792;52.452;9.752;2023-03-01T12:37:48;1.97;;;1.77;;
5539;SDS011;2792;52.452;9.752;2023-03-01T12:40:30;2.67;;;2.47;;
5539;SDS011;2792;52.452;9.752;2023-03-01T12:43:09;4.83;;;2.60;;
5539;SDS011;2792;52.452;9.752;2023-03-01T12:45:46;3.03;;;2.60;;
5539;SDS011;2792;52.452;9.752;2023-03-01T12:48:24;8.47;;;4.53;;
5539;SDS011;2792;52.452;9.752;2023-03-01T12:51:01;3.27;;;2.37;;
5539;SDS011;2792;52.452;9.752;2023-03-01T12:53:29;3.70;;;2.10;;
5539;SDS011;2792;52.452;9.752;2023-03-01T12:55:59;4.20;;;3.20;;
5539;SDS011;2792;52.452;9.752;2023-03-01T12:58:27;2.87;;;2.57;;
5539;SDS011;2792;52.452;9.752;2023-03-01T13:01:02;4.23;;;1.97;;
5539;SDS011;2792;52.452;9.752;2023-03-01T13:03:35;4.40;;;2.43;;
5539;SDS011;2792;52.452;9.752;2023-03-01T13:06:11;3.70;;;2.80;;
5539;SDS011;2792;52.452;9.752;2023-03-01T13:08:39;3.80;;;2.50;;
5539;SDS011;2792;52.452;9.752;2023-03-01T13:11:13;4.87;;;2.60;;
5539;SDS011;2792;52.452;9.752;2023-03-01T13:13:42;4.67;;;2.70;;
5539;SDS011;2792;52.452;9.752;2023-03-01T13:16:19;5.53;;;2.87;;
5539;SDS011;2792;52.452;9.752;2023-03-01T13:18:48;4.70;;;3.00;;
5539;SDS011;2792;52.452;9.752;2023-03-01T13:21:16;4.00;;;2.40;;
5539;SDS011;2792;52.452;9.752;2023-03-01T13:23:55;4.00;;;2.50;;
5539;SDS011;2792;52.452;9.752;2023-03-01T13:26:22;2.83;;;2.53;;
5539;SDS011;2792;52.452;9.752;2023-03-01T13:28:55;2.93;;;2.63;;
5539;SDS011;2792;52.452;9.752;2023-03-01T13:34:41;3.10;;;2.80;;
5539;SDS011;2792;52.452;9.752;2023-03-01T13:37:17;3.33;;;2.23;;
5539;SDS011;2792;52.452;9.752;2023-03-01T13:39:46;2.97;;;2.50;;
5539;SDS011;2792;52.452;9.752;2023-03-01T13:42:29;5.87;;;3.80;;
5539;SDS011;2792;52.452;9.752;2023-03-01T13:44:58;4.07;;;2.50;;
5539;SDS011;2792;52.452;9.752;2023-03-01T13:47:25;4.27;;;2.63;;
5539;SDS011;2792;52.452;9.752;2023-03-01T13:49:53;5.20;;;3.00;;
5539;SDS011;2792;52.452;9.752;2023-03-01T13:52:35;2.60;;;2.40;;
5539;SDS011;2792;52.452;9.752;2023-03-01T13:55:05;5.80;;;3.10;;
5539;SDS011;2792;52.452;9.752;2023-03-01T13:57:41;5.27;;;2.30;;
5539;SDS011;2792;52.452;9.752;2023-03-01T14:00:23;4.17;;;2.77;;
5539;SDS011;2792;52.452;9.752;2023-03-01T14:02:59;2.87;;;2.60;;
5539;SDS011;2792;52.452;9.752;2023-03-01T14:05:29;2.33;;;2.13;;
5539;SDS011;2792;52.452;9.752;2023-03-01T14:07:57;2.80;;;2.37;;
5539;SDS011;2792;52.452;9.752;2023-03-01T14:10:25;3.33;;;2.87;;
5539;SDS011;2792;52.452;9.752;2023-03-01T14:13:00;4.10;;;2.87;;
5539;SDS011;2792;52.452;9.752;2023-03-01T14:15:35;3.97;;;3.20;;
5539;SDS011;2792;52.452;9.752;2023-03-01T14:18:04;8.13;;;3.00;;
5539;SDS011;2792;52.452;9.752;2023-03-01T14:20:33;4.03;;;2.43;;
5539;SDS011;2792;52.452;9.752;2023-03-01T14:23:10;3.80;;;2.53;;
5539;SDS011;2792;52.452;9.752;2023-03-01T14:25:38;4.27;;;2.87;;
5539;SDS011;2792;52.452;9.752;2023-03-01T14:28:14;3.07;;;2.70;;
5539;SDS011;2792;52.452;9.752;2023-03-01T14:30:43;3.10;;;2.60;;
5539;SDS011;2792;52.452;9.752;2023-03-01T14:33:18;4.30;;;3.70;;
5539;SDS011;2792;52.452;9.752;2023-03-01T14:35:52;4.40;;;2.87;;
5539;SDS011;2792;52.452;9.752;2023-03-01T14:38:21;3.20;;;2.53;;
5539;SDS011;2792;52.452;9.752;2023-03-01T14:40:49;3.83;;;2.77;;
5539;SDS011;2792;52.452;9.752;2023-03-01T14:43:18;3.53;;;2.83;;
5539;SDS011;2792;52.452;9.752;2023-03-01T14:45:48;3.93;;;2.33;;
5539;SDS011;2792;52.452;9.752;2023-03-01T14:48:16;4.10;;;2.70;;
5539;SDS011;2792;52.452;9.752;2023-03-01T14:50:43;3.57;;;2.70;;
5539;SDS011;2792;52.452;9.752;2023-03-01T14:53:14;2.80;;;2.53;;
5539;SDS011;2792;52.452;9.752;2023-03-01T14:55:45;2.83;;;2.33;;
5539;SDS011;2792;52.452;9.752;2023-03-01T14:58:14;3.80;;;2.67;;
5539;SDS011;2792;52.452;9.752;2023-03-01T15:00:46;9.53;;;2.60;;
5539;SDS011;2792;52.452;9.752;2023-03-01T15:03:19;3.20;;;2.47;;
5539;SDS011;2792;52.452;9.752;2023-03-01T15:05:52;4.43;;;2.83;;
5539;SDS011;2792;52.452;9.752;2023-03-01T15:08:20;3.47;;;2.90;;
5539;SDS011;2792;52.452;9.752;2023-03-01T15:10:59;4.20;;;2.70;;
5539;SDS011;2792;52.452;9.752;2023-03-01T15:13:29;3.70;;;2.53;;
5539;SDS011;2792;52.452;9.752;2023-03-01T15:16:01;2.97;;;2.13;;
5539;SDS011;2792;52.452;9.752;2023-03-01T15:18:29;3.20;;;2.50;;
5539;SDS011;2792;52.452;9.752;2023-03-01T15:21:02;10.53;;;2.87;;
5539;SDS011;2792;52.452;9.752;2023-03-01T15:23:32;4.43;;;2.50;;
5539;SDS011;2792;52.452;9.752;2023-03-01T15:26:00;2.40;;;2.20;;
5539;SDS011;2792;52.452;9.752;2023-03-01T15:28:27;3.03;;;2.23;;
5539;SDS011;2792;52.452;9.752;2023-03-01T15:30:56;4.20;;;2.70;;
5539;SDS011;2792;52.452;9.752;2023-03-01T15:33:30;2.10;;;1.90;;
5539;SDS011;2792;52.452;9.752;2023-03-01T15:35:58;3.93;;;2.20;;